Time;durP1;ratioP1;P1;durP2;ratioP2;P2;SDS_P1;SDS_P2;PMS_P1;PMS_P2;Temp;Humidity;BMP_temperature;BMP_pressure;BME280_temperature;BME280_humidity;BME280_pressure;Samples;Min_cycle;Max_cycle;Signal;HPM_P1;HPM_P2
2021/09/03 00:01:10;;;;;;;7.03;4.63;;;16.20;80.30;;;;;;2073049;28;20046;-91
2021/09/03 00:02:29;;;;;;;9.52;5.40;;;16.20;80.30;;;;;;2077575;28;20041;-92
2021/09/03 00:03:49;;;;;;;9.35;5.20;;;16.20;80.30;;;;;;2078239;28;20062;-91
2021/09/03 00:05:12;;;;;;;8.73;4.85;;;16.20;80.40;;;;;;2073339;28;20038;-91
2021/09/03 00:06:32;;;;;;;7.68;4.88;;;16.20;80.40;;;;;;2092480;28;20056;-91
2021/09/03 00:07:51;;;;;;;7.72;4.70;;;16.20;80.30;;;;;;2085013;28;20116;-90
2021/09/03 00:09:11;;;;;;;8.35;4.93;;;16.20;80.40;;;;;;2070788;28;20041;-91
2021/09/03 00:10:30;;;;;;;7.45;4.72;;;16.20;80.40;;;;;;2061295;28;20041;-90
2021/09/03 00:11:49;;;;;;;8.40;4.82;;;16.20;80.40;;;;;;2060411;28;20440;-91
2021/09/03 00:13:09;;;;;;;7.57;5.18;;;16.20;80.40;;;;;;2063441;28;20034;-92
2021/09/03 00:14:28;;;;;;;7.82;5.20;;;16.20;80.50;;;;;;2062220;28;20038;-92
2021/09/03 00:15:47;;;;;;;8.45;5.38;;;16.20;80.50;;;;;;2064542;28;20037;-91
2021/09/03 00:17:06;;;;;;;8.75;5.38;;;16.20;80.60;;;;;;2064230;28;20038;-91
2021/09/03 00:18:26;;;;;;;8.07;4.60;;;16.20;80.60;;;;;;2061863;28;20038;-91
2021/09/03 00:19:45;;;;;;;7.00;5.18;;;16.10;80.50;;;;;;2065860;28;20411;-91
2021/09/03 00:21:04;;;;;;;8.57;5.00;;;16.20;80.60;;;;;;2075933;28;20129;-92
2021/09/03 00:22:24;;;;;;;6.70;4.38;;;16.10;80.60;;;;;;2056143;28;20453;-91
2021/09/03 00:23:43;;;;;;;7.22;4.97;;;16.10;80.70;;;;;;2059622;28;20042;-92
2021/09/03 00:25:04;;;;;;;8.05;5.03;;;16.10;80.70;;;;;;2066310;28;20033;-91
2021/09/03 00:26:23;;;;;;;8.95;5.13;;;16.10;80.80;;;;;;2068455;28;20038;-92
2021/09/03 00:27:42;;;;;;;7.65;4.88;;;16.10;80.80;;;;;;2067268;28;20481;-91
2021/09/03 00:29:02;;;;;;;8.18;4.88;;;16.10;80.90;;;;;;2066222;28;20034;-92
2021/09/03 00:30:21;;;;;;;7.80;5.07;;;16.10;80.90;;;;;;2068075;28;20037;-91
2021/09/03 00:31:40;;;;;;;9.05;5.63;;;16.00;80.90;;;;;;2071000;28;20042;-91
2021/09/03 00:33:00;;;;;;;7.47;5.30;;;16.10;81.00;;;;;;2065112;28;20034;-91
2021/09/03 00:34:19;;;;;;;8.48;5.15;;;16.10;81.00;;;;;;2062701;28;20069;-90
2021/09/03 00:35:39;;;;;;;7.25;4.72;;;16.00;81.00;;;;;;2065544;28;20183;-91
2021/09/03 00:36:59;;;;;;;9.50;6.18;;;16.00;81.00;;;;;;2076125;28;20033;-91
2021/09/03 00:38:18;;;;;;;10.48;5.88;;;16.00;81.10;;;;;;2063162;28;20117;-91
2021/09/03 00:39:37;;;;;;;7.97;5.40;;;16.00;81.10;;;;;;2054601;28;20073;-91
2021/09/03 00:40:57;;;;;;;9.25;5.82;;;15.90;81.10;;;;;;2065304;28;20038;-91
2021/09/03 00:42:16;;;;;;;8.38;5.55;;;16.00;81.80;;;;;;2066941;28;20029;-91
2021/09/03 00:43:36;;;;;;;9.20;5.85;;;15.90;81.80;;;;;;2061828;28;20030;-91
2021/09/03 00:44:55;;;;;;;9.48;6.13;;;15.90;81.30;;;;;;2066223;28;20030;-90
2021/09/03 00:46:14;;;;;;;8.43;5.60;;;15.90;81.30;;;;;;2066688;28;20491;-90
2021/09/03 00:47:34;;;;;;;8.23;5.30;;;15.90;81.40;;;;;;2068750;28;20034;-90
2021/09/03 00:48:53;;;;;;;10.00;5.88;;;15.90;81.50;;;;;;2070330;28;20038;-91
2021/09/03 00:50:12;;;;;;;7.95;5.95;;;15.80;81.50;;;;;;2070445;28;20113;-91
2021/09/03 00:51:32;;;;;;;9.32;5.50;;;15.80;81.60;;;;;;2054675;28;20038;-90
2021/09/03 00:52:52;;;;;;;8.43;5.57;;;15.80;81.60;;;;;;2069323;28;20022;-91
2021/09/03 00:54:11;;;;;;;9.07;6.15;;;15.80;81.70;;;;;;2073922;28;20034;-91
2021/09/03 00:55:31;;;;;;;8.68;5.95;;;15.80;81.70;;;;;;2064603;28;20038;-91
2021/09/03 00:56:50;;;;;;;9.13;5.57;;;15.80;81.80;;;;;;2067389;28;20038;-91
2021/09/03 00:58:09;;;;;;;7.63;5.43;;;15.80;81.80;;;;;;2067407;28;20042;-91
2021/09/03 00:59:29;;;;;;;8.02;5.30;;;15.70;81.80;;;;;;2069925;28;20500;-90
2021/09/03 01:00:49;;;;;;;7.60;5.05;;;15.70;81.90;;;;;;2065158;28;20547;-91
2021/09/03 01:02:08;;;;;;;7.65;4.90;;;15.70;81.90;;;;;;2051666;28;20026;-91
2021/09/03 01:03:27;;;;;;;9.18;5.97;;;15.70;81.90;;;;;;2054492;28;20512;-90
2021/09/03 01:04:47;;;;;;;8.95;5.80;;;15.70;81.90;;;;;;2062716;28;20054;-90
2021/09/03 01:06:07;;;;;;;9.60;5.93;;;15.70;81.90;;;;;;2060139;28;20034;-91
2021/09/03 01:07:26;;;;;;;7.80;5.32;;;15.70;82.00;;;;;;2067874;28;20030;-91
2021/09/03 01:08:46;;;;;;;9.00;5.70;;;15.70;82.00;;;;;;2062868;28;20042;-90
2021/09/03 01:10:05;;;;;;;9.57;5.65;;;15.70;82.10;;;;;;2067460;28;20034;-90
2021/09/03 01:11:24;;;;;;;8.98;5.68;;;15.60;82.10;;;;;;2073690;28;20026;-91
2021/09/03 01:12:44;;;;;;;8.00;5.70;;;15.60;82.20;;;;;;2068778;28;20022;-91
2021/09/03 01:14:03;;;;;;;10.43;6.45;;;15.60;82.30;;;;;;2058420;28;20078;-91
2021/09/03 01:15:23;;;;;;;10.07;5.82;;;15.60;82.30;;;;;;2069067;28;20105;-90
2021/09/03 01:16:42;;;;;;;9.95;6.15;;;15.60;82.30;;;;;;2067134;28;20038;-91
2021/09/03 01:18:01;;;;;;;11.20;6.80;;;15.60;82.40;;;;;;2070851;28;20026;-90
2021/09/03 01:19:20;;;;;;;10.27;6.10;;;15.60;82.40;;;;;;2076820;28;20033;-90
2021/09/03 01:20:40;;;;;;;9.65;6.68;;;15.50;82.40;;;;;;2065128;28;20531;-90
2021/09/03 01:21:59;;;;;;;9.27;6.68;;;15.60;82.50;;;;;;2073588;28;20034;-91
2021/09/03 01:23:18;;;;;;;9.90;6.75;;;15.60;82.50;;;;;;2069579;28;20038;-91
2021/09/03 01:24:38;;;;;;;9.27;6.38;;;15.50;82.50;;;;;;2059333;28;20046;-91
2021/09/03 01:26:03;;;;;;;10.68;5.88;;;15.50;82.50;;;;;;2067363;28;20034;-91
2021/09/03 01:27:22;;;;;;;9.38;5.80;;;15.50;82.60;;;;;;2080058;28;20041;-91
2021/09/03 01:28:42;;;;;;;9.15;6.00;;;15.50;82.60;;;;;;2057818;28;20046;-91
2021/09/03 01:30:03;;;;;;;10.65;6.70;;;15.50;82.60;;;;;;2066420;28;20033;-91
2021/09/03 01:31:22;;;;;;;10.82;6.78;;;15.50;82.70;;;;;;2069099;28;20511;-90
2021/09/03 01:32:42;;;;;;;9.32;5.93;;;15.50;82.60;;;;;;2062017;28;20030;-91
2021/09/03 01:34:01;;;;;;;10.63;6.63;;;15.50;82.70;;;;;;2070420;28;20026;-90
2021/09/03 01:35:20;;;;;;;9.77;6.32;;;15.50;82.70;;;;;;2074113;28;20106;-92
2021/09/03 01:36:39;;;;;;;10.07;6.57;;;15.50;82.70;;;;;;2071646;28;20045;-91
2021/09/03 01:37:59;;;;;;;9.90;6.10;;;15.50;82.70;;;;;;2059906;28;20109;-92
2021/09/03 01:39:18;;;;;;;9.98;6.47;;;15.50;82.70;;;;;;2069776;28;20026;-91
2021/09/03 01:40:37;;;;;;;9.63;6.07;;;15.50;82.80;;;;;;2057703;28;20482;-91
2021/09/03 01:41:57;;;;;;;8.63;6.13;;;15.40;82.80;;;;;;2057273;28;20038;-90
2021/09/03 01:43:16;;;;;;;10.95;6.60;;;15.40;82.90;;;;;;2059192;28;20042;-91
2021/09/03 01:44:35;;;;;;;10.88;6.78;;;15.40;82.90;;;;;;2072560;28;20029;-91
2021/09/03 01:45:55;;;;;;;10.20;5.85;;;15.40;82.90;;;;;;2067656;28;20038;-91
2021/09/03 01:47:14;;;;;;;9.43;6.00;;;15.40;82.90;;;;;;2058492;28;20031;-90
2021/09/03 01:48:33;;;;;;;9.88;6.15;;;15.40;82.90;;;;;;2067671;28;20069;-91
2021/09/03 01:49:52;;;;;;;9.35;6.45;;;15.40;83.00;;;;;;2077207;28;20038;-91
2021/09/03 01:51:11;;;;;;;8.05;5.57;;;15.40;83.00;;;;;;2076603;28;20042;-91
2021/09/03 01:52:30;;;;;;;8.52;5.75;;;15.40;83.10;;;;;;2067807;28;20034;-91
2021/09/03 01:53:50;;;;;;;9.02;6.50;;;15.40;83.10;;;;;;2072015;28;20038;-91
2021/09/03 01:55:09;;;;;;;9.07;6.57;;;15.40;83.10;;;;;;2058081;28;20759;-90
2021/09/03 01:56:28;;;;;;;9.18;5.97;;;15.40;83.10;;;;;;2055972;28;20082;-91
2021/09/03 01:57:48;;;;;;;9.63;6.22;;;15.40;83.10;;;;;;2068702;28;20488;-90
2021/09/03 01:59:08;;;;;;;10.88;6.90;;;15.40;83.10;;;;;;2063713;28;20026;-91
2021/09/03 02:00:28;;;;;;;;;;;15.40;83.10;;;;;;2064735;28;20042;-91
2021/09/03 02:01:48;;;;;;;8.82;5.10;;;15.40;83.00;;;;;;2071622;28;19917;-92
2021/09/03 02:03:06;;;;;;;9.07;5.97;;;15.40;82.90;;;;;;2068486;28;20030;-92
2021/09/03 02:04:26;;;;;;;9.75;6.50;;;15.30;83.00;;;;;;2063056;28;20062;-91
2021/09/03 02:05:45;;;;;;;9.13;5.65;;;15.40;83.00;;;;;;2057163;28;20034;-91
2021/09/03 02:07:04;;;;;;;10.05;6.13;;;15.30;83.60;;;;;;2065201;28;20029;-90
2021/09/03 02:08:23;;;;;;;10.65;6.65;;;15.30;83.10;;;;;;2076353;28;20033;-91
2021/09/03 02:09:42;;;;;;;9.70;6.43;;;15.30;83.10;;;;;;2078730;28;20100;-91
2021/09/03 02:11:02;;;;;;;10.20;6.55;;;15.30;83.20;;;;;;2061131;28;20038;-91
2021/09/03 02:12:21;;;;;;;9.77;6.78;;;15.30;83.30;;;;;;2065072;28;20112;-92
2021/09/03 02:13:41;;;;;;;10.10;6.40;;;15.30;83.30;;;;;;2060805;28;20057;-91
2021/09/03 02:15:00;;;;;;;10.88;6.82;;;15.30;83.30;;;;;;2064964;28;20069;-91
2021/09/03 02:16:19;;;;;;;9.73;6.38;;;15.30;83.30;;;;;;2071702;28;20034;-91
2021/09/03 02:17:39;;;;;;;9.90;6.57;;;15.30;83.40;;;;;;2063984;28;20074;-91
2021/09/03 02:19:01;;;;;;;9.93;6.80;;;15.30;83.50;;;;;;2058910;28;20030;-91
2021/09/03 02:20:20;;;;;;;10.48;6.40;;;15.30;83.50;;;;;;2066340;28;20046;-91
2021/09/03 02:21:41;;;;;;;10.75;6.60;;;15.30;83.50;;;;;;2053639;28;20043;-91
2021/09/03 02:23:00;;;;;;;;;;;15.30;83.40;;;;;;2067398;28;20034;-92
2021/09/03 02:24:19;;;;;;;9.13;5.82;;;15.30;83.30;;;;;;2079313;28;20083;-91
2021/09/03 02:25:39;;;;;;;8.35;5.75;;;15.30;83.30;;;;;;2069946;28;20073;-92
2021/09/03 02:26:58;;;;;;;9.45;6.38;;;15.30;83.40;;;;;;2057728;28;20034;-91
2021/09/03 02:28:18;;;;;;;11.48;7.47;;;15.20;83.40;;;;;;2063369;28;20109;-91
2021/09/03 02:29:38;;;;;;;10.73;6.93;;;15.20;83.40;;;;;;2083431;28;20053;-91
2021/09/03 02:30:57;;;;;;;9.43;6.25;;;15.20;83.40;;;;;;2060468;28;20038;-91
2021/09/03 02:32:19;;;;;;;9.88;6.50;;;15.20;83.50;;;;;;2072656;28;20033;-92
2021/09/03 02:33:38;;;;;;;9.18;5.85;;;15.20;83.50;;;;;;2071379;28;20030;-92
2021/09/03 02:34:58;;;;;;;9.23;6.28;;;15.20;83.50;;;;;;2065957;28;20034;-90
2021/09/03 02:36:17;;;;;;;8.48;6.07;;;15.20;84.20;;;;;;2071239;28;20029;-91
2021/09/03 02:37:37;;;;;;;10.32;6.13;;;15.20;83.60;;;;;;2066106;28;20050;-90
2021/09/03 02:38:56;;;;;;;10.27;6.35;;;15.20;83.60;;;;;;2061309;28;20054;-91
2021/09/03 02:40:15;;;;;;;9.80;6.68;;;15.20;83.60;;;;;;2074516;28;20026;-90
2021/09/03 02:41:35;;;;;;;9.57;6.10;;;15.20;83.70;;;;;;2081704;28;20503;-91
2021/09/03 02:42:54;;;;;;;8.57;5.88;;;15.20;83.70;;;;;;2071203;28;20412;-91
2021/09/03 02:44:14;;;;;;;10.20;6.00;;;15.20;83.70;;;;;;2068112;28;20463;-91
2021/09/03 02:45:34;;;;;;;10.00;6.70;;;15.20;83.70;;;;;;2075926;28;20030;-91
2021/09/03 02:46:53;;;;;;;10.73;6.70;;;15.10;83.70;;;;;;2079610;28;20517;-91
2021/09/03 02:48:12;;;;;;;9.85;6.65;;;15.20;83.80;;;;;;2072896;28;20030;-90
2021/09/03 02:49:31;;;;;;;10.32;6.57;;;15.10;83.70;;;;;;2075800;28;20022;-90
2021/09/03 02:50:51;;;;;;;9.60;6.53;;;15.10;83.80;;;;;;2071042;28;20026;-90
2021/09/03 02:52:11;;;;;;;11.68;6.80;;;15.10;83.90;;;;;;2065146;28;20042;-91
2021/09/03 02:53:30;;;;;;;10.20;6.00;;;15.10;83.90;;;;;;2068440;28;20030;-91
2021/09/03 02:54:49;;;;;;;10.35;6.53;;;15.10;83.90;;;;;;2067560;28;20034;-91
2021/09/03 02:56:09;;;;;;;11.45;6.32;;;15.10;84.00;;;;;;2071006;28;20046;-90
2021/09/03 02:57:28;;;;;;;10.13;6.70;;;15.10;84.00;;;;;;2075855;28;20029;-91
2021/09/03 02:58:47;;;;;;;9.80;6.50;;;15.00;84.00;;;;;;2067836;28;20488;-91
2021/09/03 03:00:08;;;;;;;11.10;6.57;;;15.00;84.10;;;;;;2079855;28;20037;-91
2021/09/03 03:01:28;;;;;;;10.25;6.53;;;15.00;84.20;;;;;;2080268;28;20116;-90
2021/09/03 03:02:47;;;;;;;10.32;6.53;;;15.00;84.20;;;;;;2079486;28;20029;-91
2021/09/03 03:04:06;;;;;;;11.48;7.20;;;15.00;84.30;;;;;;2071599;28;20126;-91
2021/09/03 03:05:26;;;;;;;12.00;7.30;;;15.00;84.30;;;;;;2068421;28;20046;-90
2021/09/03 03:06:45;;;;;;;11.38;7.15;;;14.90;84.30;;;;;;2073252;28;20034;-90
2021/09/03 03:08:05;;;;;;;10.18;7.13;;;14.90;84.30;;;;;;2063338;28;20030;-90
2021/09/03 03:09:24;;;;;;;10.20;7.07;;;14.90;84.40;;;;;;2059486;28;20042;-91
2021/09/03 03:10:43;;;;;;;12.18;7.57;;;14.90;84.50;;;;;;2070431;28;20113;-90
2021/09/03 03:12:03;;;;;;;10.88;7.28;;;14.90;84.50;;;;;;2077677;28;20066;-90
2021/09/03 03:13:27;;;;;;;12.10;7.93;;;14.90;84.60;;;;;;2068818;28;20026;-91
2021/09/03 03:14:47;;;;;;;11.43;7.68;;;14.80;84.50;;;;;;2080455;28;20040;-91
2021/09/03 03:16:06;;;;;;;10.00;7.20;;;14.80;84.60;;;;;;2082803;28;20033;-90
2021/09/03 03:17:26;;;;;;;10.25;6.65;;;14.80;84.60;;;;;;2066425;28;20423;-91
2021/09/03 03:18:46;;;;;;;9.80;7.07;;;14.80;84.60;;;;;;2064009;28;20027;-91
2021/09/03 03:20:06;;;;;;;12.13;7.75;;;14.80;84.60;;;;;;2054336;28;20488;-91
2021/09/03 03:21:25;;;;;;;10.02;6.85;;;14.80;84.50;;;;;;2070540;28;20474;-90
2021/09/03 03:22:45;;;;;;;9.55;6.50;;;14.80;84.50;;;;;;2065442;28;20105;-91
2021/09/03 03:24:04;;;;;;;13.23;7.03;;;14.80;84.50;;;;;;2079363;28;20026;-91
2021/09/03 03:25:23;;;;;;;12.95;8.38;;;14.80;84.50;;;;;;2074196;28;20029;-90
2021/09/03 03:26:42;;;;;;;12.88;7.65;;;14.80;84.60;;;;;;2067048;28;20045;-91
2021/09/03 03:28:03;;;;;;;11.73;7.78;;;14.70;84.60;;;;;;2070777;28;20462;-90
2021/09/03 03:29:23;;;;;;;12.52;8.30;;;14.70;84.70;;;;;;2071115;28;20030;-91
2021/09/03 03:30:42;;;;;;;12.55;8.10;;;14.70;84.70;;;;;;2064714;28;20034;-91
2021/09/03 03:32:02;;;;;;;12.00;8.20;;;14.70;84.70;;;;;;2066964;28;20034;-90
2021/09/03 03:33:22;;;;;;;11.43;7.93;;;14.70;84.80;;;;;;2070771;28;20025;-91
2021/09/03 03:34:41;;;;;;;10.90;7.97;;;14.70;84.80;;;;;;2067892;28;20038;-91
2021/09/03 03:36:00;;;;;;;13.57;8.50;;;14.70;84.90;;;;;;2063687;28;20034;-91
2021/09/03 03:37:19;;;;;;;12.25;7.65;;;14.70;84.80;;;;;;2072827;28;20061;-91
2021/09/03 03:38:39;;;;;;;11.85;8.05;;;14.70;84.80;;;;;;2060525;28;20038;-91
2021/09/03 03:39:58;;;;;;;11.82;8.02;;;14.70;84.90;;;;;;2074041;28;20105;-91
2021/09/03 03:41:17;;;;;;;11.23;7.75;;;14.60;84.80;;;;;;2068658;28;20029;-91
2021/09/03 03:42:36;;;;;;;12.88;8.32;;;14.70;85.00;;;;;;2075685;28;20146;-90
2021/09/03 03:43:59;;;;;;;14.60;8.48;;;14.60;84.90;;;;;;2072766;28;20547;-90
2021/09/03 03:45:18;;;;;;;10.48;7.47;;;14.60;84.90;;;;;;2076017;28;20085;-90
2021/09/03 03:46:37;;;;;;;12.38;8.15;;;14.60;84.90;;;;;;2062924;28;20026;-91
2021/09/03 03:47:56;;;;;;;11.45;8.00;;;14.60;85.00;;;;;;2072763;28;20034;-91
2021/09/03 03:49:15;;;;;;;11.75;8.00;;;14.60;85.10;;;;;;2070917;28;20038;-91
2021/09/03 03:50:35;;;;;;;10.88;8.25;;;14.50;85.10;;;;;;2071959;28;20058;-90
2021/09/03 03:51:55;;;;;;;12.00;7.95;;;14.50;85.10;;;;;;2080094;28;20042;-91
2021/09/03 03:53:14;;;;;;;10.80;7.43;;;14.50;85.10;;;;;;2074175;28;20026;-89
2021/09/03 03:54:33;;;;;;;13.93;8.88;;;14.50;85.20;;;;;;2058028;28;20035;-91
2021/09/03 03:55:52;;;;;;;14.15;9.32;;;14.50;85.20;;;;;;2074848;28;20029;-89
2021/09/03 03:57:11;;;;;;;13.68;9.35;;;14.50;85.30;;;;;;2074807;28;20065;-90
2021/09/03 03:58:30;;;;;;;11.32;8.52;;;14.50;85.40;;;;;;2075180;28;20034;-91
2021/09/03 03:59:50;;;;;;;12.77;8.52;;;14.50;85.40;;;;;;2076013;28;20057;-91
2021/09/03 04:01:10;;;;;;;15.00;8.77;;;14.50;85.40;;;;;;2076872;28;20037;-91
2021/09/03 04:02:29;;;;;;;11.60;8.23;;;14.40;85.30;;;;;;2072929;28;20029;-91
2021/09/03 04:03:48;;;;;;;13.25;8.52;;;14.40;85.40;;;;;;2067462;28;20277;-91
2021/09/03 04:05:08;;;;;;;11.50;7.95;;;14.40;85.50;;;;;;2070279;28;20041;-91
2021/09/03 04:06:28;;;;;;;11.43;8.10;;;14.40;85.60;;;;;;2078618;28;20029;-91
2021/09/03 04:07:47;;;;;;;12.55;8.50;;;14.40;85.60;;;;;;2074095;28;20030;-91
2021/09/03 04:09:06;;;;;;;11.93;8.05;;;14.40;85.60;;;;;;2064825;28;20528;-90
2021/09/03 04:10:26;;;;;;;13.70;8.73;;;14.40;85.60;;;;;;2075009;28;20473;-91
2021/09/03 04:11:46;;;;;;;11.23;8.07;;;14.40;85.60;;;;;;2080182;28;20037;-90
2021/09/03 04:13:06;;;;;;;12.57;8.98;;;14.30;85.60;;;;;;2072687;28;20070;-92
2021/09/03 04:14:25;;;;;;;14.13;8.77;;;14.30;85.70;;;;;;2066273;28;20034;-91
2021/09/03 04:15:44;;;;;;;14.88;9.38;;;14.30;85.80;;;;;;2072019;28;20033;-91
2021/09/03 04:17:04;;;;;;;12.25;8.45;;;14.30;85.80;;;;;;2070967;28;20034;-91
2021/09/03 04:18:23;;;;;;;11.40;8.30;;;14.30;85.90;;;;;;2074195;28;20056;-91
2021/09/03 04:19:42;;;;;;;12.25;8.73;;;14.30;86.00;;;;;;2077522;28;20037;-90
2021/09/03 04:21:02;;;;;;;13.38;8.82;;;14.30;86.00;;;;;;2075244;28;20462;-90
2021/09/03 04:22:21;;;;;;;13.00;8.38;;;14.30;86.00;;;;;;2079283;28;20021;-89
2021/09/03 04:23:40;;;;;;;12.15;8.35;;;14.30;86.00;;;;;;2087110;28;20163;-90
2021/09/03 04:25:00;;;;;;;12.60;8.73;;;14.30;86.00;;;;;;2069814;28;20046;-91
2021/09/03 04:26:19;;;;;;;12.52;8.88;;;14.30;86.00;;;;;;2067437;28;20034;-90
2021/09/03 04:27:40;;;;;;;14.38;9.73;;;14.30;86.00;;;;;;2076693;28;20041;-91
2021/09/03 04:28:59;;;;;;;13.63;9.07;;;14.20;86.00;;;;;;2079264;28;20116;-90
2021/09/03 04:30:19;;;;;;;13.25;8.65;;;14.20;86.10;;;;;;2086243;28;20531;-91
2021/09/03 04:31:39;;;;;;;12.02;8.63;;;14.20;86.70;;;;;;2079192;28;20124;-90
2021/09/03 04:32:58;;;;;;;13.73;8.60;;;14.20;86.20;;;;;;2068058;28;20038;-90
2021/09/03 04:34:17;;;;;;;13.35;9.13;;;14.20;86.20;;;;;;2075025;28;20033;-91
2021/09/03 04:35:37;;;;;;;12.95;8.30;;;14.20;86.30;;;;;;2078108;28;20112;-90
2021/09/03 04:36:56;;;;;;;11.98;8.27;;;14.20;86.30;;;;;;2080450;28;20037;-91
2021/09/03 04:38:15;;;;;;;12.07;8.85;;;14.20;86.30;;;;;;2079212;28;20025;-90
2021/09/03 04:39:35;;;;;;;11.10;7.82;;;14.20;86.40;;;;;;2079264;28;20033;-91
2021/09/03 04:40:54;;;;;;;13.00;8.48;;;14.20;86.40;;;;;;2076176;28;20045;-91
2021/09/03 04:42:13;;;;;;;11.88;8.57;;;14.20;86.40;;;;;;2068198;28;20026;-90
2021/09/03 04:43:32;;;;;;;11.07;8.40;;;14.20;86.40;;;;;;2082853;28;20067;-90
2021/09/03 04:44:51;;;;;;;11.48;8.80;;;14.20;86.30;;;;;;2080250;28;20033;-91
2021/09/03 04:46:11;;;;;;;12.45;8.50;;;14.30;86.40;;;;;;2068094;28;20038;-90
2021/09/03 04:47:30;;;;;;;12.07;8.10;;;14.20;86.30;;;;;;2074549;28;20034;-90
2021/09/03 04:48:49;;;;;;;13.07;8.90;;;14.20;86.30;;;;;;2073124;28;20137;-91
2021/09/03 04:50:10;;;;;;;13.02;8.95;;;14.20;86.30;;;;;;2071125;28;20069;-91
2021/09/03 04:51:30;;;;;;;13.10;8.05;;;14.20;86.30;;;;;;2071107;28;20499;-90
2021/09/03 04:52:49;;;;;;;14.13;9.15;;;14.20;86.40;;;;;;2083937;28;20025;-90
2021/09/03 04:54:09;;;;;;;13.60;9.02;;;14.20;86.40;;;;;;2074123;28;20034;-90
2021/09/03 04:55:28;;;;;;;13.85;9.80;;;14.20;86.50;;;;;;2069733;28;20034;-90
2021/09/03 04:56:47;;;;;;;12.73;8.45;;;14.20;86.40;;;;;;2067981;28;20590;-91
2021/09/03 04:58:07;;;;;;;11.13;8.70;;;14.20;86.50;;;;;;2075842;28;20037;-91
2021/09/03 04:59:26;;;;;;;12.93;9.32;;;14.20;86.50;;;;;;2072761;28;20045;-90
2021/09/03 05:00:45;;;;;;;12.75;9.10;;;14.20;86.40;;;;;;2074543;28;20597;-90
2021/09/03 05:02:05;;;;;;;13.15;8.30;;;14.20;86.50;;;;;;2069168;28;20519;-91
2021/09/03 05:03:24;;;;;;;12.90;8.77;;;14.20;86.50;;;;;;2065694;28;20039;-89
2021/09/03 05:04:44;;;;;;;12.10;8.18;;;14.20;86.50;;;;;;2072221;28;20482;-91
2021/09/03 05:06:03;;;;;;;13.15;8.90;;;14.20;86.50;;;;;;2069655;28;20488;-90
2021/09/03 05:07:22;;;;;;;15.10;9.20;;;14.20;86.50;;;;;;2055980;28;20034;-90
2021/09/03 05:08:42;;;;;;;13.10;8.63;;;14.20;86.50;;;;;;2064212;28;20486;-91
2021/09/03 05:10:03;;;;;;;13.43;8.93;;;14.20;86.50;;;;;;2075769;28;20034;-90
2021/09/03 05:11:22;;;;;;;12.23;8.70;;;14.20;86.60;;;;;;2069783;28;20037;-91
2021/09/03 05:12:43;;;;;;;13.45;8.98;;;14.20;86.60;;;;;;2059047;28;20069;-90
2021/09/03 05:14:02;;;;;;;13.52;8.95;;;14.20;86.50;;;;;;2065992;28;20029;-89
2021/09/03 05:15:30;;;;;;;12.27;8.45;;;14.20;86.50;;;;;;2070776;28;20113;-91
2021/09/03 05:16:49;;;;;;;12.07;8.05;;;14.20;86.60;;;;;;2079501;28;20072;-91
2021/09/03 05:18:08;;;;;;;12.15;8.60;;;14.20;86.60;;;;;;2069926;28;20034;-90
2021/09/03 05:19:27;;;;;;;12.68;8.65;;;14.20;86.60;;;;;;2070486;28;20034;-91
2021/09/03 05:20:46;;;;;;;11.90;8.27;;;14.20;86.60;;;;;;2066170;28;20038;-91
2021/09/03 05:22:05;;;;;;;13.15;9.10;;;14.20;86.60;;;;;;2065631;28;20034;-91
2021/09/03 05:23:25;;;;;;;12.30;9.13;;;14.20;86.60;;;;;;2066041;28;20447;-91
2021/09/03 05:24:44;;;;;;;11.88;8.85;;;14.20;86.60;;;;;;2064629;28;20034;-90
2021/09/03 05:26:03;;;;;;;12.35;8.60;;;14.20;86.60;;;;;;2074714;28;20038;-90
2021/09/03 05:27:23;;;;;;;12.43;8.55;;;14.20;86.60;;;;;;2060881;28;20066;-90
2021/09/03 05:28:42;;;;;;;13.35;8.48;;;14.20;86.60;;;;;;2068052;28;20022;-90
2021/09/03 05:30:02;;;;;;;11.88;8.60;;;14.20;86.60;;;;;;2072036;28;20045;-91
2021/09/03 05:31:21;;;;;;;13.23;9.27;;;14.20;86.50;;;;;;2076114;28;20101;-89
2021/09/03 05:32:43;;;;;;;12.57;8.98;;;14.30;86.60;;;;;;2076675;28;20038;-90
2021/09/03 05:34:02;;;;;;;13.50;9.20;;;14.30;86.60;;;;;;2073901;28;20034;-91
2021/09/03 05:35:24;;;;;;;14.43;9.02;;;14.30;86.50;;;;;;2072385;28;20061;-92
2021/09/03 05:36:47;;;;;;;13.10;9.05;;;14.30;86.50;;;;;;2076447;28;20042;-92
2021/09/03 05:38:07;;;;;;;12.07;8.63;;;14.30;86.50;;;;;;2075650;28;20025;-91
2021/09/03 05:39:26;;;;;;;12.65;8.77;;;14.30;86.50;;;;;;2074373;28;20033;-91
2021/09/03 05:40:45;;;;;;;16.70;9.52;;;14.40;86.50;;;;;;2058670;28;20050;-91
2021/09/03 05:42:07;;;;;;;12.50;8.88;;;14.40;86.40;;;;;;2071382;28;20038;-93
2021/09/03 05:43:27;;;;;;;12.20;8.45;;;14.40;86.40;;;;;;2083465;28;20033;-91
2021/09/03 05:44:46;;;;;;;12.82;9.10;;;14.40;86.40;;;;;;2070509;28;20022;-91
2021/09/03 05:46:05;;;;;;;13.43;9.80;;;14.50;87.00;;;;;;2071689;28;20038;-93
2021/09/03 05:47:25;;;;;;;12.73;8.57;;;14.50;86.30;;;;;;2076096;28;20026;-94
2021/09/03 05:48:45;;;;;;;13.60;9.02;;;14.50;86.30;;;;;;2081665;28;20459;-93
2021/09/03 05:50:04;;;;;;;12.93;8.90;;;14.50;86.30;;;;;;2068783;28;20026;-90
2021/09/03 05:51:24;;;;;;;11.93;8.63;;;14.50;86.20;;;;;;2063456;28;20030;-91
2021/09/03 05:52:43;;;;;;;13.80;9.23;;;14.60;86.20;;;;;;2061602;28;20034;-91
2021/09/03 05:54:07;;;;;;;13.80;9.23;;;14.60;86.10;;;;;;2065516;28;20033;-93
2021/09/03 05:55:26;;;;;;;13.48;8.90;;;14.70;86.10;;;;;;2064419;28;20042;-91
2021/09/03 05:56:45;;;;;;;13.60;8.25;;;14.70;86.00;;;;;;2053302;28;20038;-90
2021/09/03 05:58:05;;;;;;;12.70;8.98;;;14.70;85.90;;;;;;2060345;28;20030;-91
2021/09/03 05:59:24;;;;;;;12.55;8.45;;;14.70;85.90;;;;;;2058356;28;20038;-90
2021/09/03 06:00:43;;;;;;;14.02;9.68;;;14.70;85.80;;;;;;2064183;28;20093;-90
2021/09/03 06:02:03;;;;;;;12.52;9.05;;;14.80;85.80;;;;;;2066492;28;20031;-91
2021/09/03 06:03:22;;;;;;;14.25;9.40;;;14.80;85.80;;;;;;2072254;28;20026;-91
2021/09/03 06:04:41;;;;;;;14.13;8.80;;;14.80;85.70;;;;;;2068708;28;20113;-91
2021/09/03 06:06:01;;;;;;;12.90;8.77;;;14.90;85.80;;;;;;2064149;28;20074;-91
2021/09/03 06:07:20;;;;;;;13.65;8.93;;;14.90;85.70;;;;;;2067051;28;20508;-88
2021/09/03 06:08:39;;;;;;;14.10;9.20;;;14.90;85.70;;;;;;2061783;28;20034;-92
2021/09/03 06:09:59;;;;;;;12.40;8.48;;;14.90;85.70;;;;;;2064745;28;20037;-93
2021/09/03 06:11:21;;;;;;;13.88;8.70;;;14.90;85.60;;;;;;2067230;28;20042;-92
2021/09/03 06:12:40;;;;;;;11.40;8.13;;;15.00;85.60;;;;;;2077799;28;20038;-92
2021/09/03 06:14:00;;;;;;;13.82;8.95;;;15.00;85.60;;;;;;2077469;28;20038;-90
2021/09/03 06:15:19;;;;;;;13.05;8.57;;;15.00;85.50;;;;;;2073528;28;20034;-91
2021/09/03 06:16:39;;;;;;;14.60;9.20;;;15.00;85.40;;;;;;2066343;28;20046;-92
2021/09/03 06:17:58;;;;;;;13.18;8.90;;;15.00;85.40;;;;;;2077611;28;20037;-93
2021/09/03 06:19:17;;;;;;;12.73;8.60;;;15.10;85.40;;;;;;2074233;28;20042;-93
2021/09/03 06:20:37;;;;;;;13.48;9.25;;;15.10;85.40;;;;;;2069938;28;20038;-93
2021/09/03 06:22:00;;;;;;;13.32;8.95;;;15.10;85.40;;;;;;2069565;28;20034;-92
2021/09/03 06:23:19;;;;;;;12.68;8.68;;;15.10;85.40;;;;;;2067122;28;20053;-92
2021/09/03 06:24:39;;;;;;;12.82;8.68;;;15.20;85.40;;;;;;2069051;28;20038;-92
2021/09/03 06:25:58;;;;;;;12.57;8.70;;;15.20;85.30;;;;;;2067500;28;20056;-93
2021/09/03 06:27:17;;;;;;;14.68;8.40;;;15.20;85.30;;;;;;2074299;28;20792;-92
2021/09/03 06:28:37;;;;;;;11.65;8.35;;;15.30;85.30;;;;;;2070422;28;20459;-92
2021/09/03 06:29:56;;;;;;;12.15;8.20;;;15.30;85.20;;;;;;2066348;28;20041;-92
2021/09/03 06:31:16;;;;;;;13.10;8.85;;;15.30;85.20;;;;;;2065145;28;20029;-91
2021/09/03 06:32:35;;;;;;;12.55;8.57;;;15.30;85.10;;;;;;2063540;28;20062;-93
2021/09/03 06:33:54;;;;;;;11.45;8.48;;;15.40;85.10;;;;;;2064840;28;20038;-92
2021/09/03 06:35:14;;;;;;;12.30;8.50;;;15.40;85.00;;;;;;2068606;28;20117;-93
2021/09/03 06:36:33;;;;;;;14.00;8.52;;;15.40;85.00;;;;;;2068893;28;20038;-93
2021/09/03 06:37:52;;;;;;;11.45;8.43;;;15.40;84.90;;;;;;2064658;28;20038;-93
2021/09/03 06:39:11;;;;;;;13.65;9.20;;;15.50;84.90;;;;;;2063513;28;20105;-91
2021/09/03 06:40:30;;;;;;;11.50;8.68;;;15.50;84.90;;;;;;2063809;28;20030;-91
2021/09/03 06:41:49;;;;;;;15.13;9.13;;;15.50;84.90;;;;;;2074581;28;20041;-91
2021/09/03 06:43:09;;;;;;;12.68;9.32;;;15.50;84.90;;;;;;2076661;28;20030;-92
2021/09/03 06:44:28;;;;;;;14.05;9.68;;;15.50;84.90;;;;;;2067309;28;20030;-91
2021/09/03 06:45:47;;;;;;;13.70;9.43;;;15.60;84.90;;;;;;2062911;28;20030;-89
2021/09/03 06:47:07;;;;;;;14.13;9.48;;;15.50;84.80;;;;;;2066318;28;20054;-88
2021/09/03 06:48:27;;;;;;;13.35;9.38;;;15.60;84.80;;;;;;2068652;28;20034;-90
2021/09/03 06:49:46;;;;;;;12.60;8.65;;;15.60;84.80;;;;;;2068308;28;20503;-89
2021/09/03 06:51:05;;;;;;;13.90;8.88;;;15.60;84.80;;;;;;2063731;28;20034;-92